sensor_id;sensor_type;location;lat;lon;timestamp;P1;durP1;ratioP1;P2;durP2;ratioP2
72437;SDS011;60444;43.534;-5.674;2022-08-19T00:01:50;10.10;;;4.77;;
72437;SDS011;60444;43.534;-5.674;2022-08-19T00:04:17;10.55;;;4.78;;
72437;SDS011;60444;43.534;-5.674;2022-08-19T00:06:45;10.82;;;4.72;;
72437;SDS011;60444;43.534;-5.674;2022-08-19T00:09:16;10.75;;;4.60;;
72437;SDS011;60444;43.534;-5.674;2022-08-19T00:11:43;11.05;;;4.85;;
72437;SDS011;60444;43.534;-5.674;2022-08-19T00:14:11;9.50;;;4.67;;
72437;SDS011;60444;43.534;-5.674;2022-08-19T00:16:38;9.65;;;4.28;;
72437;SDS011;60444;43.534;-5.674;2022-08-19T00:19:06;9.15;;;4.55;;
72437;SDS011;60444;43.534;-5.674;2022-08-19T00:21:32;10.85;;;4.70;;
72437;SDS011;60444;43.534;-5.674;2022-08-19T00:23:57;11.17;;;4.40;;
72437;SDS011;60444;43.534;-5.674;2022-08-19T00:26:24;9.43;;;4.88;;
72437;SDS011;60444;43.534;-5.674;2022-08-19T00:28:50;9.45;;;4.53;;
72437;SDS011;60444;43.534;-5.674;2022-08-19T00:31:16;11.33;;;5.10;;
72437;SDS011;60444;43.534;-5.674;2022-08-19T00:33:42;8.85;;;4.25;;
72437;SDS011;60444;43.534;-5.674;2022-08-19T00:36:08;9.13;;;4.10;;
72437;SDS011;60444;43.534;-5.674;2022-08-19T00:38:35;10.35;;;4.30;;
72437;SDS011;60444;43.534;-5.674;2022-08-19T00:41:02;9.63;;;4.13;;
72437;SDS011;60444;43.534;-5.674;2022-08-19T00:43:28;11.40;;;4.28;;
72437;SDS011;60444;43.534;-5.674;2022-08-19T00:45:54;8.93;;;4.10;;
72437;SDS011;60444;43.534;-5.674;2022-08-19T00:48:20;9.05;;;4.32;;
72437;SDS011;60444;43.534;-5.674;2022-08-19T00:50:47;10.13;;;4.40;;
72437;SDS011;60444;43.534;-5.674;2022-08-19T00:53:14;9.30;;;4.32;;
72437;SDS011;60444;43.534;-5.674;2022-08-19T00:55:47;8.20;;;3.93;;
72437;SDS011;60444;43.534;-5.674;2022-08-19T00:58:17;9.00;;;4.07;;
72437;SDS011;60444;43.534;-5.674;2022-08-19T01:00:48;9.35;;;4.63;;
72437;SDS011;60444;43.534;-5.674;2022-08-19T01:03:15;10.37;;;4.30;;
72437;SDS011;60444;43.534;-5.674;2022-08-19T01:05:43;10.70;;;4.50;;
72437;SDS011;60444;43.534;-5.674;2022-08-19T01:08:10;11.73;;;4.53;;
72437;SDS011;60444;43.534;-5.674;2022-08-19T01:10:44;9.80;;;4.68;;
72437;SDS011;60444;43.534;-5.674;2022-08-19T01:13:16;9.52;;;4.45;;
72437;SDS011;60444;43.534;-5.674;2022-08-19T01:15:47;9.37;;;4.90;;
72437;SDS011;60444;43.534;-5.674;2022-08-19T01:18:17;10.65;;;4.28;;
72437;SDS011;60444;43.534;-5.674;2022-08-19T01:20:46;10.48;;;4.57;;
72437;SDS011;60444;43.534;-5.674;2022-08-19T01:23:11;9.00;;;4.07;;
72437;SDS011;60444;43.534;-5.674;2022-08-19T01:28:22;9.57;;;4.00;;
72437;SDS011;60444;43.534;-5.674;2022-08-19T01:30:53;9.05;;;4.43;;
72437;SDS011;60444;43.534;-5.674;2022-08-19T01:33:20;9.82;;;4.68;;
72437;SDS011;60444;43.534;-5.674;2022-08-19T01:35:48;9.80;;;4.60;;
72437;SDS011;60444;43.534;-5.674;2022-08-19T01:38:24;10.80;;;4.70;;
72437;SDS011;60444;43.534;-5.674;2022-08-19T01:40:56;12.15;;;4.82;;
72437;SDS011;60444;43.534;-5.674;2022-08-19T01:43:22;8.77;;;4.20;;
72437;SDS011;60444;43.534;-5.674;2022-08-19T01:45:47;10.07;;;4.67;;
72437;SDS011;60444;43.534;-5.674;2022-08-19T01:48:13;9.90;;;4.90;;
72437;SDS011;60444;43.534;-5.674;2022-08-19T01:50:39;10.30;;;4.70;;
72437;SDS011;60444;43.534;-5.674;2022-08-19T01:53:07;11.77;;;5.32;;
72437;SDS011;60444;43.534;-5.674;2022-08-19T01:55:36;12.32;;;4.28;;
72437;SDS011;60444;43.534;-5.674;2022-08-19T01:58:04;10.95;;;4.20;;
72437;SDS011;60444;43.534;-5.674;2022-08-19T02:00:32;9.43;;;4.63;;
72437;SDS011;60444;43.534;-5.674;2022-08-19T02:02:58;9.30;;;4.70;;
72437;SDS011;60444;43.534;-5.674;2022-08-19T02:05:26;13.13;;;5.57;;
72437;SDS011;60444;43.534;-5.674;2022-08-19T02:07:54;10.77;;;4.70;;
72437;SDS011;60444;43.534;-5.674;2022-08-19T02:10:24;9.45;;;4.80;;
72437;SDS011;60444;43.534;-5.674;2022-08-19T02:12:49;9.53;;;4.60;;
72437;SDS011;60444;43.534;-5.674;2022-08-19T02:15:19;9.02;;;4.50;;
72437;SDS011;60444;43.534;-5.674;2022-08-19T02:17:47;11.63;;;5.35;;
72437;SDS011;60444;43.534;-5.674;2022-08-19T02:20:13;9.80;;;5.20;;
72437;SDS011;60444;43.534;-5.674;2022-08-19T02:22:40;10.73;;;4.82;;
72437;SDS011;60444;43.534;-5.674;2022-08-19T02:25:08;9.95;;;4.60;;
72437;SDS011;60444;43.534;-5.674;2022-08-19T02:27:38;10.93;;;4.95;;
72437;SDS011;60444;43.534;-5.674;2022-08-19T02:30:05;11.07;;;4.82;;
72437;SDS011;60444;43.534;-5.674;2022-08-19T02:32:34;10.17;;;4.60;;
72437;SDS011;60444;43.534;-5.674;2022-08-19T02:35:00;9.95;;;5.03;;
72437;SDS011;60444;43.534;-5.674;2022-08-19T02:37:26;8.70;;;3.97;;
72437;SDS011;60444;43.534;-5.674;2022-08-19T02:40:11;10.60;;;4.63;;
72437;SDS011;60444;43.534;-5.674;2022-08-19T02:42:37;10.25;;;5.28;;
72437;SDS011;60444;43.534;-5.674;2022-08-19T02:45:03;12.53;;;5.23;;
72437;SDS011;60444;43.534;-5.674;2022-08-19T02:47:29;9.85;;;5.28;;
72437;SDS011;60444;43.534;-5.674;2022-08-19T02:49:55;10.17;;;4.93;;
72437;SDS011;60444;43.534;-5.674;2022-08-19T02:52:21;10.93;;;5.00;;
72437;SDS011;60444;43.534;-5.674;2022-08-19T02:54:48;11.63;;;4.70;;
72437;SDS011;60444;43.534;-5.674;2022-08-19T02:57:14;11.93;;;4.85;;
72437;SDS011;60444;43.534;-5.674;2022-08-19T02:59:40;10.05;;;4.50;;
72437;SDS011;60444;43.534;-5.674;2022-08-19T03:02:05;9.43;;;4.70;;
72437;SDS011;60444;43.534;-5.674;2022-08-19T03:04:31;10.67;;;4.57;;
72437;SDS011;60444;43.534;-5.674;2022-08-19T03:06:56;11.18;;;5.00;;
72437;SDS011;60444;43.534;-5.674;2022-08-19T03:09:22;11.80;;;5.30;;
72437;SDS011;60444;43.534;-5.674;2022-08-19T03:11:48;11.88;;;5.07;;
72437;SDS011;60444;43.534;-5.674;2022-08-19T03:14:13;10.27;;;5.00;;
72437;SDS011;60444;43.534;-5.674;2022-08-19T03:16:41;10.50;;;4.43;;
72437;SDS011;60444;43.534;-5.674;2022-08-19T03:19:15;10.17;;;5.30;;
72437;SDS011;60444;43.534;-5.674;2022-08-19T03:21:42;11.52;;;4.43;;
72437;SDS011;60444;43.534;-5.674;2022-08-19T03:24:09;11.02;;;4.88;;
72437;SDS011;60444;43.534;-5.674;2022-08-19T03:26:42;11.70;;;5.07;;
72437;SDS011;60444;43.534;-5.674;2022-08-19T03:29:10;11.35;;;5.05;;
72437;SDS011;60444;43.534;-5.674;2022-08-19T03:31:37;10.77;;;5.10;;
72437;SDS011;60444;43.534;-5.674;2022-08-19T03:34:04;10.30;;;4.88;;
72437;SDS011;60444;43.534;-5.674;2022-08-19T03:36:30;10.30;;;5.03;;
72437;SDS011;60444;43.534;-5.674;2022-08-19T03:38:57;8.95;;;4.68;;
72437;SDS011;60444;43.534;-5.674;2022-08-19T03:41:25;11.15;;;5.38;;
72437;SDS011;60444;43.534;-5.674;2022-08-19T03:43:54;10.80;;;5.77;;
72437;SDS011;60444;43.534;-5.674;2022-08-19T03:46:27;13.25;;;5.47;;
72437;SDS011;60444;43.534;-5.674;2022-08-19T03:48:55;12.05;;;5.20;;
72437;SDS011;60444;43.534;-5.674;2022-08-19T03:51:25;15.23;;;5.32;;
72437;SDS011;60444;43.534;-5.674;2022-08-19T03:53:53;11.00;;;5.47;;
72437;SDS011;60444;43.534;-5.674;2022-08-19T03:56:20;10.25;;;4.72;;
72437;SDS011;60444;43.534;-5.674;2022-08-19T03:58:46;10.60;;;5.22;;
72437;SDS011;60444;43.534;-5.674;2022-08-19T04:01:16;11.93;;;5.00;;
72437;SDS011;60444;43.534;-5.674;2022-08-19T04:03:43;10.67;;;5.37;;
72437;SDS011;60444;43.534;-5.674;2022-08-19T04:08:46;11.90;;;5.07;;
72437;SDS011;60444;43.534;-5.674;2022-08-19T04:11:18;13.25;;;4.70;;
72437;SDS011;60444;43.534;-5.674;2022-08-19T04:13:46;11.23;;;4.88;;
72437;SDS011;60444;43.534;-5.674;2022-08-19T04:16:13;11.47;;;4.20;;
72437;SDS011;60444;43.534;-5.674;2022-08-19T04:18:39;13.05;;;5.32;;
72437;SDS011;60444;43.534;-5.674;2022-08-19T04:21:06;9.20;;;4.63;;
72437;SDS011;60444;43.534;-5.674;2022-08-19T04:23:33;10.50;;;5.00;;
72437;SDS011;60444;43.534;-5.674;2022-08-19T04:26:00;10.25;;;4.57;;
72437;SDS011;60444;43.534;-5.674;2022-08-19T04:28:27;10.40;;;4.97;;
72437;SDS011;60444;43.534;-5.674;2022-08-19T04:30:54;11.07;;;5.35;;
72437;SDS011;60444;43.534;-5.674;2022-08-19T04:33:21;11.90;;;4.88;;
72437;SDS011;60444;43.534;-5.674;2022-08-19T04:35:49;9.90;;;4.60;;
72437;SDS011;60444;43.534;-5.674;2022-08-19T04:38:17;12.32;;;5.70;;
72437;SDS011;60444;43.534;-5.674;2022-08-19T04:40:44;10.83;;;4.83;;
72437;SDS011;60444;43.534;-5.674;2022-08-19T04:43:30;11.48;;;5.35;;
72437;SDS011;60444;43.534;-5.674;2022-08-19T04:45:58;11.35;;;5.20;;
72437;SDS011;60444;43.534;-5.674;2022-08-19T04:48:28;10.13;;;5.07;;
72437;SDS011;60444;43.534;-5.674;2022-08-19T04:50:56;10.40;;;5.27;;
72437;SDS011;60444;43.534;-5.674;2022-08-19T04:53:27;10.57;;;5.07;;
72437;SDS011;60444;43.534;-5.674;2022-08-19T04:55:57;9.82;;;5.22;;
72437;SDS011;60444;43.534;-5.674;2022-08-19T04:58:25;11.27;;;5.13;;
72437;SDS011;60444;43.534;-5.674;2022-08-19T05:00:51;10.10;;;4.80;;
72437;SDS011;60444;43.534;-5.674;2022-08-19T05:03:20;12.43;;;4.93;;
72437;SDS011;60444;43.534;-5.674;2022-08-19T05:05:46;12.88;;;5.50;;
72437;SDS011;60444;43.534;-5.674;2022-08-19T05:08:16;11.30;;;5.22;;
72437;SDS011;60444;43.534;-5.674;2022-08-19T05:10:46;10.05;;;4.68;;
72437;SDS011;60444;43.534;-5.674;2022-08-19T05:13:13;11.03;;;4.90;;
72437;SDS011;60444;43.534;-5.674;2022-08-19T05:15:40;10.45;;;4.75;;
72437;SDS011;60444;43.534;-5.674;2022-08-19T05:18:06;10.65;;;5.18;;
72437;SDS011;60444;43.534;-5.674;2022-08-19T05:20:50;10.68;;;4.75;;
72437;SDS011;60444;43.534;-5.674;2022-08-19T05:23:34;10.57;;;5.30;;
72437;SDS011;60444;43.534;-5.674;2022-08-19T05:25:59;11.13;;;5.33;;
72437;SDS011;60444;43.534;-5.674;2022-08-19T05:28:26;10.40;;;5.30;;
72437;SDS011;60444;43.534;-5.674;2022-08-19T05:30:55;10.07;;;4.73;;
72437;SDS011;60444;43.534;-5.674;2022-08-19T05:33:24;9.35;;;5.00;;
72437;SDS011;60444;43.534;-5.674;2022-08-19T05:35:49;10.93;;;5.32;;
72437;SDS011;60444;43.534;-5.674;2022-08-19T05:38:18;10.55;;;5.03;;
72437;SDS011;60444;43.534;-5.674;2022-08-19T05:40:44;11.40;;;4.97;;
72437;SDS011;60444;43.534;-5.674;2022-08-19T05:43:12;9.90;;;4.97;;
72437;SDS011;60444;43.534;-5.674;2022-08-19T05:45:40;9.98;;;5.28;;
72437;SDS011;60444;43.534;-5.674;2022-08-19T05:48:07;10.32;;;5.20;;
72437;SDS011;60444;43.534;-5.674;2022-08-19T05:50:36;13.00;;;5.22;;
72437;SDS011;60444;43.534;-5.674;2022-08-19T05:53:03;11.37;;;5.00;;
72437;SDS011;60444;43.534;-5.674;2022-08-19T05:55:29;10.25;;;4.90;;
72437;SDS011;60444;43.534;-5.674;2022-08-19T05:57:55;12.25;;;4.78;;
72437;SDS011;60444;43.534;-5.674;2022-08-19T06:00:21;11.40;;;5.63;;
72437;SDS011;60444;43.534;-5.674;2022-08-19T06:02:46;10.05;;;4.90;;
72437;SDS011;60444;43.534;-5.674;2022-08-19T06:05:12;11.73;;;4.93;;
72437;SDS011;60444;43.534;-5.674;2022-08-19T06:07:38;11.33;;;5.40;;
72437;SDS011;60444;43.534;-5.674;2022-08-19T06:10:05;13.18;;;6.25;;
72437;SDS011;60444;43.534;-5.674;2022-08-19T06:12:35;13.05;;;5.72;;
72437;SDS011;60444;43.534;-5.674;2022-08-19T06:15:03;11.65;;;5.65;;
72437;SDS011;60444;43.534;-5.674;2022-08-19T06:17:36;11.73;;;4.95;;
72437;SDS011;60444;43.534;-5.674;2022-08-19T06:20:08;11.97;;;5.37;;
72437;SDS011;60444;43.534;-5.674;2022-08-19T06:22:39;10.98;;;5.28;;
72437;SDS011;60444;43.534;-5.674;2022-08-19T06:25:09;11.15;;;5.03;;
72437;SDS011;60444;43.534;-5.674;2022-08-19T06:27:36;10.35;;;5.40;;
72437;SDS011;60444;43.534;-5.674;2022-08-19T06:30:03;11.87;;;5.80;;
72437;SDS011;60444;43.534;-5.674;2022-08-19T06:32:29;11.98;;;5.28;;
72437;SDS011;60444;43.534;-5.674;2022-08-19T06:34:55;10.18;;;4.63;;
72437;SDS011;60444;43.534;-5.674;2022-08-19T06:37:20;10.33;;;4.80;;
72437;SDS011;60444;43.534;-5.674;2022-08-19T06:39:47;10.52;;;4.57;;
72437;SDS011;60444;43.534;-5.674;2022-08-19T06:42:14;10.93;;;5.07;;
72437;SDS011;60444;43.534;-5.674;2022-08-19T06:44:42;9.53;;;4.40;;
72437;SDS011;60444;43.534;-5.674;2022-08-19T06:47:10;10.68;;;5.30;;
72437;SDS011;60444;43.534;-5.674;2022-08-19T06:49:38;10.63;;;4.97;;
72437;SDS011;60444;43.534;-5.674;2022-08-19T06:52:04;10.13;;;5.05;;
72437;SDS011;60444;43.534;-5.674;2022-08-19T06:54:30;10.07;;;4.63;;
72437;SDS011;60444;43.534;-5.674;2022-08-19T06:56:57;10.07;;;4.50;;
72437;SDS011;60444;43.534;-5.674;2022-08-19T06:59:24;10.77;;;5.18;;
72437;SDS011;60444;43.534;-5.674;2022-08-19T07:01:53;11.33;;;5.17;;
72437;SDS011;60444;43.534;-5.674;2022-08-19T07:04:22;11.10;;;4.38;;
72437;SDS011;60444;43.534;-5.674;2022-08-19T07:06:49;10.15;;;4.70;;
72437;SDS011;60444;43.534;-5.674;2022-08-19T07:09:21;10.02;;;4.78;;
72437;SDS011;60444;43.534;-5.674;2022-08-19T07:11:51;10.98;;;5.43;;
72437;SDS011;60444;43.534;-5.674;2022-08-19T07:14:19;9.67;;;4.43;;
72437;SDS011;60444;43.534;-5.674;2022-08-19T07:16:48;10.52;;;5.03;;
72437;SDS011;60444;43.534;-5.674;2022-08-19T07:19:20;9.00;;;4.53;;
72437;SDS011;60444;43.534;-5.674;2022-08-19T07:21:48;10.50;;;4.70;;
72437;SDS011;60444;43.534;-5.674;2022-08-19T07:24:18;11.15;;;5.35;;
72437;SDS011;60444;43.534;-5.674;2022-08-19T07:26:45;12.97;;;5.83;;
72437;SDS011;60444;43.534;-5.674;2022-08-19T07:29:11;11.15;;;4.45;;
72437;SDS011;60444;43.534;-5.674;2022-08-19T07:31:37;11.27;;;4.75;;
72437;SDS011;60444;43.534;-5.674;2022-08-19T07:34:08;9.37;;;4.70;;
72437;SDS011;60444;43.534;-5.674;2022-08-19T07:36:37;9.68;;;4.30;;
72437;SDS011;60444;43.534;-5.674;2022-08-19T07:39:07;10.68;;;4.57;;
72437;SDS011;60444;43.534;-5.674;2022-08-19T07:41:35;9.65;;;4.47;;
72437;SDS011;60444;43.534;-5.674;2022-08-19T07:44:02;9.07;;;4.38;;
72437;SDS011;60444;43.534;-5.674;2022-08-19T07:46:30;9.70;;;4.57;;
72437;SDS011;60444;43.534;-5.674;2022-08-19T07:48:57;10.45;;;4.22;;
72437;SDS011;60444;43.534;-5.674;2022-08-19T07:51:23;9.15;;;4.63;;
72437;SDS011;60444;43.534;-5.674;2022-08-19T07:53:55;9.27;;;4.22;;
72437;SDS011;60444;43.534;-5.674;2022-08-19T07:56:22;9.50;;;4.70;;
72437;SDS011;60444;43.534;-5.674;2022-08-19T07:58:51;8.70;;;4.10;;
72437;SDS011;60444;43.534;-5.674;2022-08-19T08:01:24;8.00;;;3.70;;
72437;SDS011;60444;43.534;-5.674;2022-08-19T08:03:52;9.25;;;4.32;;
72437;SDS011;60444;43.534;-5.674;2022-08-19T08:06:37;9.52;;;4.30;;
72437;SDS011;60444;43.534;-5.674;2022-08-19T08:09:29;9.10;;;4.20;;
72437;SDS011;60444;43.534;-5.674;2022-08-19T08:12:03;8.57;;;3.90;;
72437;SDS011;60444;43.534;-5.674;2022-08-19T08:14:41;8.07;;;4.05;;
72437;SDS011;60444;43.534;-5.674;2022-08-19T08:17:18;8.48;;;4.10;;
72437;SDS011;60444;43.534;-5.674;2022-08-19T08:19:47;11.05;;;4.28;;
72437;SDS011;60444;43.534;-5.674;2022-08-19T08:22:15;11.13;;;4.00;;
72437;SDS011;60444;43.534;-5.674;2022-08-19T08:27:36;9.48;;;4.30;;
72437;SDS011;60444;43.534;-5.674;2022-08-19T08:30:06;10.45;;;4.40;;
72437;SDS011;60444;43.534;-5.674;2022-08-19T08:32:34;8.48;;;3.63;;
72437;SDS011;60444;43.534;-5.674;2022-08-19T08:35:07;8.15;;;3.80;;
72437;SDS011;60444;43.534;-5.674;2022-08-19T08:37:35;9.40;;;4.20;;
72437;SDS011;60444;43.534;-5.674;2022-08-19T08:40:05;8.23;;;3.83;;
72437;SDS011;60444;43.534;-5.674;2022-08-19T08:42:43;7.85;;;3.55;;
72437;SDS011;60444;43.534;-5.674;2022-08-19T08:45:28;9.27;;;4.63;;
72437;SDS011;60444;43.534;-5.674;2022-08-19T08:47:55;9.52;;;4.22;;
72437;SDS011;60444;43.534;-5.674;2022-08-19T08:50:28;11.33;;;5.27;;
72437;SDS011;60444;43.534;-5.674;2022-08-19T08:53:05;9.10;;;5.03;;
72437;SDS011;60444;43.534;-5.674;2022-08-19T08:55:33;9.30;;;3.95;;
72437;SDS011;60444;43.534;-5.674;2022-08-19T08:58:06;16.20;;;5.43;;
72437;SDS011;60444;43.534;-5.674;2022-08-19T09:00:40;7.88;;;3.97;;
72437;SDS011;60444;43.534;-5.674;2022-08-19T09:03:10;8.93;;;4.07;;
72437;SDS011;60444;43.534;-5.674;2022-08-19T09:08:37;12.80;;;6.18;;
72437;SDS011;60444;43.534;-5.674;2022-08-19T09:11:30;12.25;;;5.78;;
72437;SDS011;60444;43.534;-5.674;2022-08-19T09:16:38;16.80;;;6.57;;
72437;SDS011;60444;43.534;-5.674;2022-08-19T09:19:06;12.48;;;5.78;;
72437;SDS011;60444;43.534;-5.674;2022-08-19T09:21:32;18.38;;;7.18;;
72437;SDS011;60444;43.534;-5.674;2022-08-19T09:24:00;14.05;;;6.50;;
72437;SDS011;60444;43.534;-5.674;2022-08-19T09:26:28;16.38;;;7.00;;
72437;SDS011;60444;43.534;-5.674;2022-08-19T09:28:56;14.00;;;6.60;;
72437;SDS011;60444;43.534;-5.674;2022-08-19T09:31:24;18.17;;;6.25;;
72437;SDS011;60444;43.534;-5.674;2022-08-19T09:33:52;11.10;;;6.00;;
72437;SDS011;60444;43.534;-5.674;2022-08-19T09:36:25;12.00;;;4.88;;
72437;SDS011;60444;43.534;-5.674;2022-08-19T09:38:53;11.98;;;5.75;;
72437;SDS011;60444;43.534;-5.674;2022-08-19T09:41:22;13.37;;;5.20;;
72437;SDS011;60444;43.534;-5.674;2022-08-19T09:43:50;10.95;;;4.80;;
72437;SDS011;60444;43.534;-5.674;2022-08-19T09:46:17;11.00;;;5.25;;
72437;SDS011;60444;43.534;-5.674;2022-08-19T09:48:46;12.55;;;5.47;;
72437;SDS011;60444;43.534;-5.674;2022-08-19T09:51:17;12.95;;;5.68;;
72437;SDS011;60444;43.534;-5.674;2022-08-19T09:53:49;12.03;;;5.37;;
72437;SDS011;60444;43.534;-5.674;2022-08-19T09:56:16;14.07;;;5.13;;
72437;SDS011;60444;43.534;-5.674;2022-08-19T09:58:43;11.73;;;5.03;;
72437;SDS011;60444;43.534;-5.674;2022-08-19T10:01:11;13.23;;;5.07;;
72437;SDS011;60444;43.534;-5.674;2022-08-19T10:03:47;12.75;;;5.07;;
72437;SDS011;60444;43.534;-5.674;2022-08-19T10:06:14;15.67;;;5.47;;
72437;SDS011;60444;43.534;-5.674;2022-08-19T10:08:40;13.48;;;5.57;;
72437;SDS011;60444;43.534;-5.674;2022-08-19T10:11:06;14.90;;;5.70;;
72437;SDS011;60444;43.534;-5.674;2022-08-19T10:13:32;14.53;;;5.53;;
72437;SDS011;60444;43.534;-5.674;2022-08-19T10:16:07;13.70;;;5.30;;
72437;SDS011;60444;43.534;-5.674;2022-08-19T10:18:34;12.30;;;5.22;;
72437;SDS011;60444;43.534;-5.674;2022-08-19T10:21:06;12.70;;;4.90;;
72437;SDS011;60444;43.534;-5.674;2022-08-19T10:23:33;13.15;;;5.07;;
72437;SDS011;60444;43.534;-5.674;2022-08-19T10:26:01;12.23;;;5.20;;
72437;SDS011;60444;43.534;-5.674;2022-08-19T10:28:29;14.98;;;6.15;;
72437;SDS011;60444;43.534;-5.674;2022-08-19T10:30:54;12.10;;;5.70;;
72437;SDS011;60444;43.534;-5.674;2022-08-19T10:33:20;12.03;;;5.47;;
72437;SDS011;60444;43.534;-5.674;2022-08-19T10:35:45;12.38;;;5.80;;
72437;SDS011;60444;43.534;-5.674;2022-08-19T10:38:11;12.60;;;5.73;;
72437;SDS011;60444;43.534;-5.674;2022-08-19T10:40:37;14.68;;;5.72;;
72437;SDS011;60444;43.534;-5.674;2022-08-19T10:43:03;14.88;;;5.38;;
72437;SDS011;60444;43.534;-5.674;2022-08-19T10:45:29;13.40;;;5.73;;
72437;SDS011;60444;43.534;-5.674;2022-08-19T10:47:54;13.33;;;5.43;;
72437;SDS011;60444;43.534;-5.674;2022-08-19T10:50:20;14.23;;;5.93;;
72437;SDS011;60444;43.534;-5.674;2022-08-19T10:53:05;15.23;;;6.25;;
72437;SDS011;60444;43.534;-5.674;2022-08-19T10:55:35;12.05;;;5.10;;
72437;SDS011;60444;43.534;-5.674;2022-08-19T10:58:20;13.55;;;6.28;;
72437;SDS011;60444;43.534;-5.674;2022-08-19T11:00:55;13.17;;;5.37;;
72437;SDS011;60444;43.534;-5.674;2022-08-19T11:03:23;13.35;;;6.00;;
72437;SDS011;60444;43.534;-5.674;2022-08-19T11:05:57;13.88;;;5.68;;
72437;SDS011;60444;43.534;-5.674;2022-08-19T11:08:23;12.27;;;5.90;;
72437;SDS011;60444;43.534;-5.674;2022-08-19T11:10:52;13.95;;;5.55;;
72437;SDS011;60444;43.534;-5.674;2022-08-19T11:13:24;14.67;;;5.80;;
72437;SDS011;60444;43.534;-5.674;2022-08-19T11:15:59;15.27;;;6.85;;
72437;SDS011;60444;43.534;-5.674;2022-08-19T11:18:50;12.30;;;6.15;;
72437;SDS011;60444;43.534;-5.674;2022-08-19T11:21:19;14.32;;;6.25;;
72437;SDS011;60444;43.534;-5.674;2022-08-19T11:23:46;13.20;;;5.97;;
72437;SDS011;60444;43.534;-5.674;2022-08-19T11:26:13;10.97;;;4.93;;
72437;SDS011;60444;43.534;-5.674;2022-08-19T11:28:40;13.65;;;5.57;;
72437;SDS011;60444;43.534;-5.674;2022-08-19T11:31:16;10.82;;;4.65;;
72437;SDS011;60444;43.534;-5.674;2022-08-19T11:33:45;11.40;;;4.35;;
72437;SDS011;60444;43.534;-5.674;2022-08-19T11:36:11;11.32;;;5.00;;
72437;SDS011;60444;43.534;-5.674;2022-08-19T11:38:37;10.90;;;4.90;;
72437;SDS011;60444;43.534;-5.674;2022-08-19T11:41:04;9.00;;;4.15;;
72437;SDS011;60444;43.534;-5.674;2022-08-19T11:43:35;10.90;;;5.00;;
72437;SDS011;60444;43.534;-5.674;2022-08-19T11:46:04;10.67;;;5.17;;
72437;SDS011;60444;43.534;-5.674;2022-08-19T11:48:31;11.88;;;5.10;;
72437;SDS011;60444;43.534;-5.674;2022-08-19T11:50:57;8.73;;;3.90;;
72437;SDS011;60444;43.534;-5.674;2022-08-19T11:53:23;11.30;;;4.13;;
72437;SDS011;60444;43.534;-5.674;2022-08-19T11:55:49;10.68;;;3.92;;
72437;SDS011;60444;43.534;-5.674;2022-08-19T11:58:21;11.65;;;4.47;;
72437;SDS011;60444;43.534;-5.674;2022-08-19T12:00:46;11.40;;;4.43;;
72437;SDS011;60444;43.534;-5.674;2022-08-19T12:03:12;9.50;;;3.90;;
72437;SDS011;60444;43.534;-5.674;2022-08-19T12:05:39;10.63;;;4.22;;
72437;SDS011;60444;43.534;-5.674;2022-08-19T12:08:05;10.88;;;4.13;;
72437;SDS011;60444;43.534;-5.674;2022-08-19T12:10:32;10.00;;;4.63;;
72437;SDS011;60444;43.534;-5.674;2022-08-19T12:12:59;10.43;;;4.38;;
72437;SDS011;60444;43.534;-5.674;2022-08-19T12:15:25;10.48;;;4.35;;
72437;SDS011;60444;43.534;-5.674;2022-08-19T12:17:53;13.95;;;4.63;;
72437;SDS011;60444;43.534;-5.674;2022-08-19T12:20:22;10.23;;;4.37;;
72437;SDS011;60444;43.534;-5.674;2022-08-19T12:22:48;12.80;;;4.63;;
72437;SDS011;60444;43.534;-5.674;2022-08-19T12:25:15;13.88;;;4.03;;
72437;SDS011;60444;43.534;-5.674;2022-08-19T12:27:41;9.30;;;4.40;;
72437;SDS011;60444;43.534;-5.674;2022-08-19T12:30:07;11.10;;;4.20;;
72437;SDS011;60444;43.534;-5.674;2022-08-19T12:32:36;9.95;;;4.53;;
72437;SDS011;60444;43.534;-5.674;2022-08-19T12:35:03;9.55;;;3.97;;
72437;SDS011;60444;43.534;-5.674;2022-08-19T12:37:29;12.15;;;4.63;;
72437;SDS011;60444;43.534;-5.674;2022-08-19T12:39:54;12.73;;;4.57;;
72437;SDS011;60444;43.534;-5.674;2022-08-19T12:42:20;10.43;;;4.32;;
72437;SDS011;60444;43.534;-5.674;2022-08-19T12:44:47;10.48;;;4.80;;
72437;SDS011;60444;43.534;-5.674;2022-08-19T12:47:13;9.03;;;3.90;;
72437;SDS011;60444;43.534;-5.674;2022-08-19T12:49:39;10.80;;;4.77;;
72437;SDS011;60444;43.534;-5.674;2022-08-19T12:52:06;12.07;;;4.65;;
72437;SDS011;60444;43.534;-5.674;2022-08-19T12:54:33;12.25;;;5.00;;
72437;SDS011;60444;43.534;-5.674;2022-08-19T12:57:04;10.80;;;4.57;;
72437;SDS011;60444;43.534;-5.674;2022-08-19T12:59:31;9.77;;;4.65;;
72437;SDS011;60444;43.534;-5.674;2022-08-19T13:01:56;9.80;;;4.27;;
72437;SDS011;60444;43.534;-5.674;2022-08-19T13:04:22;13.30;;;4.97;;
72437;SDS011;60444;43.534;-5.674;2022-08-19T13:06:48;11.50;;;5.13;;
72437;SDS011;60444;43.534;-5.674;2022-08-19T13:09:13;10.10;;;4.80;;
72437;SDS011;60444;43.534;-5.674;2022-08-19T13:11:39;9.63;;;4.60;;
72437;SDS011;60444;43.534;-5.674;2022-08-19T13:14:04;11.83;;;5.00;;
72437;SDS011;60444;43.534;-5.674;2022-08-19T13:16:30;12.88;;;4.88;;
72437;SDS011;60444;43.534;-5.674;2022-08-19T13:18:56;11.83;;;4.97;;
72437;SDS011;60444;43.534;-5.674;2022-08-19T13:21:23;10.15;;;4.55;;
72437;SDS011;60444;43.534;-5.674;2022-08-19T13:23:51;10.80;;;5.18;;
72437;SDS011;60444;43.534;-5.674;2022-08-19T13:26:17;11.77;;;4.93;;
72437;SDS011;60444;43.534;-5.674;2022-08-19T13:28:43;10.07;;;4.20;;
72437;SDS011;60444;43.534;-5.674;2022-08-19T13:31:29;10.18;;;4.68;;
72437;SDS011;60444;43.534;-5.674;2022-08-19T13:34:16;12.80;;;4.82;;
72437;SDS011;60444;43.534;-5.674;2022-08-19T13:36:44;12.32;;;4.43;;
72437;SDS011;60444;43.534;-5.674;2022-08-19T13:39:10;11.67;;;4.90;;
72437;SDS011;60444;43.534;-5.674;2022-08-19T13:41:35;10.63;;;4.18;;
72437;SDS011;60444;43.534;-5.674;2022-08-19T13:44:03;9.68;;;4.50;;
72437;SDS011;60444;43.534;-5.674;2022-08-19T13:46:31;11.03;;;4.53;;
72437;SDS011;60444;43.534;-5.674;2022-08-19T13:48:56;11.57;;;4.47;;
72437;SDS011;60444;43.534;-5.674;2022-08-19T13:51:22;9.90;;;4.30;;
72437;SDS011;60444;43.534;-5.674;2022-08-19T13:53:50;10.27;;;5.22;;
72437;SDS011;60444;43.534;-5.674;2022-08-19T13:56:17;14.27;;;4.87;;
72437;SDS011;60444;43.534;-5.674;2022-08-19T13:58:47;9.50;;;4.07;;
72437;SDS011;60444;43.534;-5.674;2022-08-19T14:01:12;8.77;;;4.15;;
72437;SDS011;60444;43.534;-5.674;2022-08-19T14:03:45;9.60;;;3.90;;
72437;SDS011;60444;43.534;-5.674;2022-08-19T14:06:10;10.77;;;4.50;;
72437;SDS011;60444;43.534;-5.674;2022-08-19T14:08:36;9.63;;;4.20;;
72437;SDS011;60444;43.534;-5.674;2022-08-19T14:11:04;13.75;;;4.90;;
72437;SDS011;60444;43.534;-5.674;2022-08-19T14:13:30;9.57;;;3.50;;
72437;SDS011;60444;43.534;-5.674;2022-08-19T14:15:57;10.23;;;3.95;;
72437;SDS011;60444;43.534;-5.674;2022-08-19T14:18:23;10.98;;;4.00;;
72437;SDS011;60444;43.534;-5.674;2022-08-19T14:20:50;8.90;;;3.57;;
72437;SDS011;60444;43.534;-5.674;2022-08-19T14:23:16;8.65;;;3.42;;
72437;SDS011;60444;43.534;-5.674;2022-08-19T14:25:41;8.95;;;3.80;;
72437;SDS011;60444;43.534;-5.674;2022-08-19T14:28:08;9.20;;;4.23;;
72437;SDS011;60444;43.534;-5.674;2022-08-19T14:30:34;10.93;;;3.70;;
72437;SDS011;60444;43.534;-5.674;2022-08-19T14:33:02;8.77;;;3.72;;
72437;SDS011;60444;43.534;-5.674;2022-08-19T14:35:30;9.63;;;4.20;;
72437;SDS011;60444;43.534;-5.674;2022-08-19T14:37:59;9.38;;;3.40;;
72437;SDS011;60444;43.534;-5.674;2022-08-19T14:40:27;8.77;;;3.65;;
72437;SDS011;60444;43.534;-5.674;2022-08-19T14:42:58;10.48;;;3.83;;
72437;SDS011;60444;43.534;-5.674;2022-08-19T14:45:29;8.13;;;3.58;;
72437;SDS011;60444;43.534;-5.674;2022-08-19T14:47:56;8.87;;;3.80;;